Time;durP1;ratioP1;P1;durP2;ratioP2;P2;SDS_P1;SDS_P2;PMS_P1;PMS_P2;Temp;Humidity;BMP_temperature;BMP_pressure;BME280_temperature;BME280_humidity;BME280_pressure;Samples;Min_cycle;Max_cycle;Signal;HPM_P1;HPM_P2
2021/08/09 00:00:50;;;;;;;0.00;0.00;;;22.70;49.80;;;;;;5061901;28;20225;-67
2021/08/09 00:03:17;;;;;;;0.10;0.10;;;22.60;50.00;;;;;;5062164;28;20237;-67
2021/08/09 00:05:46;;;;;;;0.00;0.00;;;22.60;50.40;;;;;;5060157;28;20533;-67
2021/08/09 00:08:13;;;;;;;0.00;0.00;;;22.50;50.70;;;;;;5063749;28;20205;-68
2021/08/09 00:10:40;;;;;;;0.00;0.00;;;22.50;51.10;;;;;;5064244;28;20214;-68
2021/08/09 00:13:07;;;;;;;0.10;0.10;;;22.50;51.40;;;;;;5063445;28;20206;-68
2021/08/09 00:15:34;;;;;;;0.00;0.00;;;22.50;52.00;;;;;;5061551;28;20299;-68
2021/08/09 00:18:01;;;;;;;0.00;0.00;;;22.50;52.40;;;;;;5063557;28;20635;-68
2021/08/09 00:20:28;;;;;;;0.10;0.10;;;22.40;52.10;;;;;;5061495;28;20214;-68
2021/08/09 00:22:55;;;;;;;0.00;0.00;;;22.30;52.20;;;;;;5067668;28;20283;-68
2021/08/09 00:25:22;;;;;;;0.00;0.00;;;22.20;51.70;;;;;;5062455;28;20213;-68
2021/08/09 00:27:49;;;;;;;0.00;0.00;;;22.20;51.30;;;;;;5060247;28;20233;-68
2021/08/09 00:30:16;;;;;;;0.10;0.10;;;22.10;51.00;;;;;;5059031;28;20237;-68
2021/08/09 00:32:43;;;;;;;0.03;0.03;;;22.10;50.60;;;;;;5067208;28;20267;-68
2021/08/09 00:35:10;;;;;;;0.00;0.00;;;22.00;50.40;;;;;;5063729;28;20291;-68
2021/08/09 00:37:37;;;;;;;0.00;0.00;;;22.00;50.30;;;;;;5064458;28;20233;-67
2021/08/09 00:40:06;;;;;;;0.20;0.20;;;21.90;49.90;;;;;;5070526;28;20221;-67
2021/08/09 00:42:33;;;;;;;0.10;0.10;;;21.90;49.80;;;;;;5064145;28;20753;-67
2021/08/09 00:45:00;;;;;;;0.00;0.00;;;21.80;49.80;;;;;;5064269;28;20245;-67
2021/08/09 00:47:27;;;;;;;0.00;0.00;;;21.80;49.90;;;;;;5067772;28;20218;-68
2021/08/09 00:49:54;;;;;;;0.10;0.10;;;21.70;50.20;;;;;;5067789;28;20206;-68
2021/08/09 00:52:22;;;;;;;0.00;0.00;;;21.60;50.20;;;;;;5065243;28;20214;-68
2021/08/09 00:54:49;;;;;;;0.00;0.00;;;21.60;50.70;;;;;;5062707;28;20215;-68
2021/08/09 00:57:17;;;;;;;0.00;0.00;;;21.60;51.00;;;;;;5064634;28;20287;-68
2021/08/09 00:59:44;;;;;;;0.07;0.07;;;21.60;51.40;;;;;;5066784;28;20205;-68
2021/08/09 01:02:11;;;;;;;0.10;0.10;;;21.60;51.50;;;;;;5069806;28;20236;-68
2021/08/09 01:04:39;;;;;;;0.00;0.00;;;21.50;51.70;;;;;;5070571;28;20198;-68
2021/08/09 01:07:07;;;;;;;0.00;0.00;;;21.50;52.00;;;;;;5068819;28;20279;-68
2021/08/09 01:09:43;;;;;;;0.00;0.00;;;21.30;52.10;;;;;;5069381;28;20540;-68
2021/08/09 01:12:35;;;;;;;0.00;0.00;;;21.20;51.80;;;;;;5067508;28;20222;-68
2021/08/09 01:15:24;;;;;;;0.00;0.00;;;21.30;52.00;;;;;;5064366;28;20739;-68
2021/08/09 01:17:54;;;;;;;0.00;0.00;;;21.20;52.80;;;;;;5067871;28;20232;-68
2021/08/09 01:21:00;;;;;;;0.00;0.00;;;21.10;53.60;;;;;;5071992;28;20547;-68
2021/08/09 01:23:46;;;;;;;0.00;0.00;;;21.10;54.00;;;;;;5046379;28;20242;-68
2021/08/09 01:26:27;;;;;;;0.00;0.00;;;21.00;54.00;;;;;;5046224;28;20211;-68
2021/08/09 01:28:56;;;;;;;0.00;0.00;;;20.90;54.00;;;;;;5057599;28;20594;-68
2021/08/09 01:31:29;;;;;;;0.00;0.00;;;20.70;53.90;;;;;;5066687;28;20737;-68
2021/08/09 01:33:58;;;;;;;0.00;0.00;;;20.70;54.20;;;;;;5067187;28;20229;-68
2021/08/09 01:36:28;;;;;;;0.10;0.10;;;20.60;54.10;;;;;;5069075;28;20209;-68
2021/08/09 01:38:56;;;;;;;0.00;0.00;;;20.50;54.20;;;;;;5069116;28;20216;-68
2021/08/09 01:41:25;;;;;;;0.00;0.00;;;20.60;54.50;;;;;;5069055;28;20213;-68
2021/08/09 01:43:53;;;;;;;0.00;0.00;;;20.60;54.80;;;;;;5067844;28;20233;-68
2021/08/09 01:46:21;;;;;;;0.00;0.00;;;20.60;54.80;;;;;;5062865;28;20628;-68
2021/08/09 01:48:48;;;;;;;0.00;0.00;;;20.60;54.70;;;;;;5064994;28;20566;-68
2021/08/09 01:51:16;;;;;;;0.00;0.00;;;20.60;54.90;;;;;;5061930;28;20215;-68
2021/08/09 01:53:43;;;;;;;0.10;0.10;;;20.60;54.80;;;;;;5063906;28;20696;-68
2021/08/09 01:56:11;;;;;;;0.00;0.00;;;20.60;54.80;;;;;;5064945;28;20635;-68
2021/08/09 01:58:38;;;;;;;0.10;0.10;;;20.50;54.80;;;;;;5064399;28;20217;-68
2021/08/09 02:01:06;;;;;;;0.00;0.00;;;20.40;54.80;;;;;;5066768;28;20608;-68
2021/08/09 02:03:33;;;;;;;0.10;0.10;;;20.30;55.00;;;;;;5065570;28;20245;-68
2021/08/09 02:06:00;;;;;;;0.00;0.00;;;20.30;54.80;;;;;;5062084;28;20214;-68
2021/08/09 02:08:27;;;;;;;0.00;0.00;;;20.20;55.00;;;;;;5062994;28;20274;-68
2021/08/09 02:11:04;;;;;;;0.00;0.00;;;20.30;55.40;;;;;;5071791;28;20209;-68
2021/08/09 02:13:45;;;;;;;0.00;0.00;;;20.30;55.70;;;;;;5063306;28;20748;-67
2021/08/09 02:16:37;;;;;;;0.10;0.10;;;20.30;55.70;;;;;;5063217;28;20530;-67
2021/08/09 02:19:19;;;;;;;0.10;0.10;;;20.20;56.40;;;;;;5065279;28;20217;-67
2021/08/09 02:21:54;;;;;;;0.00;0.00;;;20.20;56.70;;;;;;5062976;28;20280;-67
2021/08/09 02:24:29;;;;;;;0.10;0.10;;;20.20;57.30;;;;;;5061513;28;20248;-67
2021/08/09 02:27:02;;;;;;;0.00;0.00;;;20.10;58.50;;;;;;5061545;28;20253;-67
2021/08/09 02:29:33;;;;;;;3.60;0.67;;;20.10;58.80;;;;;;5067383;28;20303;-67
2021/08/09 02:32:04;;;;;;;0.10;0.10;;;20.00;59.30;;;;;;5061053;28;20221;-67
2021/08/09 02:34:33;;;;;;;0.10;0.10;;;20.00;59.20;;;;;;5061991;28;20214;-67
2021/08/09 02:37:04;;;;;;;0.10;0.10;;;20.00;59.30;;;;;;5061545;28;20218;-67
2021/08/09 02:39:32;;;;;;;0.00;0.00;;;19.90;59.90;;;;;;5064205;28;20213;-68
2021/08/09 02:42:00;;;;;;;0.00;0.00;;;19.90;60.30;;;;;;5061901;28;20225;-68
2021/08/09 02:44:29;;;;;;;0.00;0.00;;;20.00;60.40;;;;;;5063695;28;20240;-68
2021/08/09 02:46:57;;;;;;;0.00;0.00;;;19.90;60.20;;;;;;5062025;28;20211;-68
2021/08/09 02:49:25;;;;;;;0.10;0.10;;;19.90;60.00;;;;;;5066630;28;20210;-68
2021/08/09 02:51:52;;;;;;;0.00;0.00;;;19.80;59.70;;;;;;5064200;28;20240;-67
2021/08/09 02:54:20;;;;;;;0.10;0.10;;;19.70;59.60;;;;;;5062364;28;20218;-67
2021/08/09 02:56:49;;;;;;;0.10;0.10;;;19.70;59.60;;;;;;5061217;28;20221;-67
2021/08/09 02:59:16;;;;;;;0.10;0.10;;;19.60;59.50;;;;;;5063008;28;20214;-67
2021/08/09 03:01:43;;;;;;;0.10;0.10;;;19.70;59.70;;;;;;5062857;28;20707;-67
2021/08/09 03:04:15;;;;;;;0.00;0.00;;;19.70;59.60;;;;;;5065145;28;20237;-68
2021/08/09 03:06:43;;;;;;;0.00;0.00;;;19.70;59.40;;;;;;5062153;28;20640;-67
2021/08/09 03:09:10;;;;;;;0.00;0.00;;;19.80;59.50;;;;;;5062551;28;20217;-68
2021/08/09 03:11:41;;;;;;;0.00;0.00;;;19.80;59.30;;;;;;5060710;28;20229;-67
2021/08/09 03:14:21;;;;;;;0.00;0.00;;;19.80;59.00;;;;;;5061141;28;20678;-67
2021/08/09 03:16:49;;;;;;;1.07;0.63;;;19.70;58.10;;;;;;5062132;28;20226;-67
2021/08/09 03:19:16;;;;;;;0.10;0.10;;;19.60;58.10;;;;;;5060962;28;20785;-68
2021/08/09 03:21:52;;;;;;;0.00;0.00;;;19.50;58.20;;;;;;5062747;28;20217;-68
2021/08/09 03:24:20;;;;;;;0.00;0.00;;;19.50;58.50;;;;;;5063390;28;20226;-68
2021/08/09 03:26:49;;;;;;;0.00;0.00;;;19.50;58.70;;;;;;5062765;28;20220;-68
2021/08/09 03:29:17;;;;;;;0.00;0.00;;;19.50;58.70;;;;;;5062418;28;20639;-68
2021/08/09 03:31:44;;;;;;;0.00;0.00;;;19.60;59.20;;;;;;5060500;28;20281;-68
2021/08/09 03:34:11;;;;;;;0.10;0.10;;;19.60;59.50;;;;;;5063048;28;20217;-68
2021/08/09 03:36:41;;;;;;;0.00;0.00;;;19.60;59.70;;;;;;5063090;28;20226;-68
2021/08/09 03:39:09;;;;;;;0.00;0.00;;;19.60;59.70;;;;;;5063510;28;20214;-68
2021/08/09 03:41:36;;;;;;;0.10;0.10;;;19.60;59.90;;;;;;5063147;28;20218;-68
2021/08/09 03:44:05;;;;;;;0.00;0.00;;;19.60;60.10;;;;;;5060396;28;20242;-68
2021/08/09 03:46:32;;;;;;;0.00;0.00;;;19.50;60.00;;;;;;5062887;28;20270;-68
2021/08/09 03:49:03;;;;;;;0.10;0.10;;;19.50;60.10;;;;;;5064998;28;20639;-68
2021/08/09 03:51:38;;;;;;;0.00;0.00;;;19.50;60.30;;;;;;5062995;28;20224;-68
2021/08/09 03:54:06;;;;;;;0.00;0.00;;;19.50;60.20;;;;;;5062679;28;20213;-68
2021/08/09 03:56:34;;;;;;;0.20;0.20;;;19.50;59.90;;;;;;5063222;28;20547;-68
2021/08/09 03:59:02;;;;;;;0.10;0.10;;;19.50;60.00;;;;;;5061625;28;20214;-68
2021/08/09 04:01:29;;;;;;;0.00;0.00;;;19.50;59.90;;;;;;5066011;28;20206;-68
2021/08/09 04:03:56;;;;;;;0.73;0.57;;;19.50;59.70;;;;;;5068751;28;20245;-68
2021/08/09 04:06:23;;;;;;;0.27;0.20;;;19.50;59.70;;;;;;5061134;28;20226;-68
2021/08/09 04:08:50;;;;;;;0.00;0.00;;;19.40;59.60;;;;;;5062831;28;20217;-68
2021/08/09 04:11:17;;;;;;;0.10;0.10;;;19.40;60.50;;;;;;5064788;28;20210;-68
2021/08/09 04:13:44;;;;;;;0.10;0.10;;;19.40;60.10;;;;;;5064732;28;20222;-68
2021/08/09 04:16:11;;;;;;;0.10;0.10;;;19.40;60.30;;;;;;5066551;28;20222;-68
2021/08/09 04:18:39;;;;;;;0.20;0.20;;;19.50;60.60;;;;;;5065840;28;20566;-68
2021/08/09 04:21:06;;;;;;;0.00;0.00;;;19.50;60.60;;;;;;5064699;28;20218;-68
2021/08/09 04:23:33;;;;;;;0.00;0.00;;;19.60;60.50;;;;;;5073563;28;20536;-68
2021/08/09 04:26:00;;;;;;;0.10;0.10;;;19.60;60.30;;;;;;5064413;28;20632;-68
2021/08/09 04:28:27;;;;;;;0.10;0.10;;;19.60;60.20;;;;;;5064411;28;20287;-68
2021/08/09 04:30:54;;;;;;;0.00;0.00;;;19.60;60.30;;;;;;5065902;28;20691;-68
2021/08/09 04:33:21;;;;;;;0.00;0.00;;;19.60;60.40;;;;;;5064203;28;20218;-68
2021/08/09 04:35:56;;;;;;;0.10;0.10;;;19.70;60.50;;;;;;5064186;28;20567;-68
2021/08/09 04:38:23;;;;;;;0.10;0.10;;;19.70;60.60;;;;;;5064633;28;20220;-68
2021/08/09 04:40:50;;;;;;;0.10;0.10;;;19.80;60.70;;;;;;5067915;28;20238;-68
2021/08/09 04:43:17;;;;;;;0.10;0.10;;;19.80;60.90;;;;;;5065958;28;20623;-67
2021/08/09 04:45:45;;;;;;;0.10;0.10;;;19.90;61.00;;;;;;5064543;28;20214;-67
2021/08/09 04:48:12;;;;;;;0.10;0.10;;;19.90;60.40;;;;;;5063689;28;20603;-67
2021/08/09 04:50:39;;;;;;;0.00;0.00;;;19.90;60.40;;;;;;5070332;28;20284;-67
2021/08/09 04:53:08;;;;;;;0.10;0.10;;;19.90;60.80;;;;;;5064998;28;20209;-67
2021/08/09 04:55:36;;;;;;;0.00;0.00;;;19.90;60.80;;;;;;5065762;28;20235;-67
2021/08/09 04:58:04;;;;;;;0.00;0.00;;;20.00;60.80;;;;;;5065666;28;20221;-67
2021/08/09 05:00:31;;;;;;;0.10;0.10;;;20.10;60.80;;;;;;5064934;28;20222;-68
2021/08/09 05:02:59;;;;;;;0.00;0.00;;;20.20;60.60;;;;;;5061938;28;20214;-67
2021/08/09 05:05:26;;;;;;;0.40;0.40;;;20.30;60.30;;;;;;5064191;28;20556;-67
2021/08/09 05:07:54;;;;;;;0.00;0.00;;;20.40;60.40;;;;;;5064887;28;20275;-67
2021/08/09 05:10:23;;;;;;;0.00;0.00;;;20.50;60.50;;;;;;5066614;28;20210;-67
2021/08/09 05:12:50;;;;;;;0.10;0.10;;;20.60;60.30;;;;;;5065134;28;20214;-67
2021/08/09 05:15:17;;;;;;;0.00;0.00;;;20.70;60.00;;;;;;5065773;28;20605;-67
2021/08/09 05:17:44;;;;;;;0.10;0.10;;;20.90;60.10;;;;;;5062635;28;20214;-67
2021/08/09 05:20:11;;;;;;;0.10;0.10;;;21.00;60.30;;;;;;5066910;28;20213;-68
2021/08/09 05:22:38;;;;;;;0.00;0.00;;;21.10;60.20;;;;;;5064028;28;20214;-68
2021/08/09 05:25:10;;;;;;;0.10;0.10;;;21.20;59.90;;;;;;5063135;28;20238;-68
2021/08/09 05:27:38;;;;;;;0.03;0.03;;;21.40;59.70;;;;;;5064029;28;20220;-68
2021/08/09 05:30:06;;;;;;;0.10;0.10;;;21.60;59.50;;;;;;5065397;28;20242;-68
2021/08/09 05:32:35;;;;;;;0.83;0.83;;;21.70;59.30;;;;;;5064274;28;20211;-68
2021/08/09 05:35:04;;;;;;;0.00;0.00;;;21.90;59.10;;;;;;5062741;28;20280;-68
2021/08/09 05:37:31;;;;;;;0.10;0.10;;;22.20;59.00;;;;;;5062583;28;20568;-68
2021/08/09 05:39:58;;;;;;;0.00;0.00;;;22.50;58.70;;;;;;5068476;28;20225;-68
2021/08/09 05:42:26;;;;;;;0.10;0.10;;;22.90;57.80;;;;;;5072536;28;20555;-68
2021/08/09 05:44:53;;;;;;;0.10;0.10;;;23.30;56.80;;;;;;5062661;28;20238;-68
2021/08/09 05:47:20;;;;;;;0.03;0.03;;;23.60;55.80;;;;;;5063178;28;20218;-68
2021/08/09 05:49:47;;;;;;;0.10;0.10;;;23.80;54.90;;;;;;5065521;28;20658;-68
2021/08/09 05:52:26;;;;;;;0.00;0.00;;;24.00;54.70;;;;;;5062786;28;20255;-68
2021/08/09 05:54:54;;;;;;;0.20;0.20;;;24.00;54.90;;;;;;5062121;28;20217;-68
2021/08/09 05:57:21;;;;;;;0.00;0.00;;;24.20;54.10;;;;;;5062800;28;20225;-68
2021/08/09 05:59:48;;;;;;;0.00;0.00;;;24.10;53.80;;;;;;5064258;28;20214;-68
2021/08/09 06:02:15;;;;;;;0.07;0.07;;;24.10;53.50;;;;;;5061833;28;20222;-68
2021/08/09 06:04:42;;;;;;;0.00;0.00;;;24.20;53.50;;;;;;5063162;28;20230;-68
2021/08/09 06:07:16;;;;;;;0.00;0.00;;;24.30;53.60;;;;;;5068541;28;20205;-69
2021/08/09 06:09:45;;;;;;;0.00;0.00;;;24.50;53.00;;;;;;5065298;28;20642;-69
2021/08/09 06:12:12;;;;;;;0.00;0.00;;;24.60;52.20;;;;;;5062082;28;20614;-69
2021/08/09 06:14:40;;;;;;;0.03;0.03;;;24.70;51.60;;;;;;5064897;28;20275;-68
2021/08/09 06:17:07;;;;;;;0.10;0.10;;;24.70;51.20;;;;;;5064748;28;20210;-68
2021/08/09 06:19:35;;;;;;;0.00;0.00;;;24.60;51.20;;;;;;5067526;28;20214;-68
2021/08/09 06:22:04;;;;;;;0.00;0.00;;;24.50;51.40;;;;;;5062284;28;20214;-68
2021/08/09 06:24:32;;;;;;;1.60;1.50;;;24.70;51.30;;;;;;5062435;28;20230;-68
2021/08/09 06:26:59;;;;;;;0.00;0.00;;;24.80;50.30;;;;;;5064743;28;20254;-68
2021/08/09 06:29:26;;;;;;;0.00;0.00;;;24.80;50.50;;;;;;5070406;28;20215;-68
2021/08/09 06:31:53;;;;;;;0.10;0.10;;;24.90;50.70;;;;;;5061648;28;20251;-69
2021/08/09 06:34:21;;;;;;;0.00;0.00;;;25.10;50.80;;;;;;5063756;28;20213;-69
2021/08/09 06:36:48;;;;;;;0.00;0.00;;;25.30;50.70;;;;;;5070929;28;20280;-69
2021/08/09 06:39:19;;;;;;;0.00;0.00;;;25.40;50.60;;;;;;5062820;28;20214;-69
2021/08/09 06:41:49;;;;;;;3.83;2.13;;;25.40;50.60;;;;;;5061520;28;20226;-69
2021/08/09 06:44:16;;;;;;;0.00;0.00;;;25.60;50.20;;;;;;5061710;28;20245;-69
2021/08/09 06:46:43;;;;;;;0.00;0.00;;;25.70;49.70;;;;;;5063954;28;20270;-69
2021/08/09 06:49:10;;;;;;;0.00;0.00;;;25.90;49.20;;;;;;5062008;28;20214;-69
2021/08/09 06:51:37;;;;;;;0.10;0.10;;;26.00;48.50;;;;;;5061617;28;20206;-69
2021/08/09 06:54:04;;;;;;;0.10;0.10;;;26.10;48.60;;;;;;5063657;28;20217;-69
2021/08/09 06:56:31;;;;;;;0.00;0.00;;;26.40;48.70;;;;;;5064636;28;20228;-69
2021/08/09 06:58:58;;;;;;;0.00;0.00;;;26.60;48.40;;;;;;5063488;28;20213;-69
2021/08/09 07:01:26;;;;;;;0.00;0.00;;;26.80;47.50;;;;;;5060834;28;20572;-69
2021/08/09 07:03:53;;;;;;;0.00;0.00;;;26.90;47.40;;;;;;5062337;28;20230;-69
2021/08/09 07:06:23;;;;;;;0.00;0.00;;;27.10;47.30;;;;;;5063190;28;20209;-69
2021/08/09 07:08:51;;;;;;;0.00;0.00;;;27.40;46.80;;;;;;5060860;28;20247;-69
2021/08/09 07:11:18;;;;;;;0.00;0.00;;;27.60;46.00;;;;;;5064364;28;20501;-69
2021/08/09 07:13:46;;;;;;;0.00;0.00;;;27.80;44.90;;;;;;5060724;28;20229;-69
2021/08/09 07:16:13;;;;;;;0.00;0.00;;;27.90;44.60;;;;;;5063677;28;20214;-69
2021/08/09 07:18:40;;;;;;;0.00;0.00;;;28.10;44.60;;;;;;5061274;28;20297;-69
2021/08/09 07:21:12;;;;;;;0.00;0.00;;;28.20;43.60;;;;;;5062979;28;20214;-69
2021/08/09 07:23:39;;;;;;;0.00;0.00;;;28.40;43.80;;;;;;5061924;28;20299;-69
2021/08/09 07:26:07;;;;;;;0.27;0.27;;;28.50;43.30;;;;;;5064563;28;20270;-69
2021/08/09 07:28:34;;;;;;;0.00;0.00;;;28.70;43.00;;;;;;5069002;28;20678;-69
2021/08/09 07:31:02;;;;;;;2.57;0.97;;;28.80;42.00;;;;;;5061726;28;20246;-69
2021/08/09 07:33:29;;;;;;;0.10;0.10;;;29.00;41.30;;;;;;5063338;28;20213;-69
2021/08/09 07:35:56;;;;;;;0.83;0.77;;;29.10;41.10;;;;;;5061702;28;20214;-69
2021/08/09 07:38:23;;;;;;;0.00;0.00;;;29.10;41.00;;;;;;5060985;28;20593;-70
2021/08/09 07:40:50;;;;;;;0.10;0.10;;;29.20;40.90;;;;;;5066278;28;20592;-70
2021/08/09 07:43:17;;;;;;;0.00;0.00;;;29.40;41.00;;;;;;5060838;28;20558;-70
2021/08/09 07:45:44;;;;;;;0.00;0.00;;;29.60;40.30;;;;;;5061449;28;20249;-70
2021/08/09 07:48:14;;;;;;;0.00;0.00;;;29.80;39.70;;;;;;5067211;28;20205;-70
2021/08/09 07:50:42;;;;;;;0.00;0.00;;;29.90;39.70;;;;;;5065419;28;20210;-71
2021/08/09 07:53:09;;;;;;;0.00;0.00;;;30.00;39.80;;;;;;5064561;28;20210;-70
2021/08/09 07:55:36;;;;;;;0.10;0.10;;;30.10;40.00;;;;;;5067984;28;20273;-70
2021/08/09 07:58:03;;;;;;;0.10;0.10;;;30.40;38.50;;;;;;5065162;28;20217;-70
2021/08/09 08:00:30;;;;;;;0.20;0.20;;;30.40;38.40;;;;;;5067146;28;20232;-71
2021/08/09 08:02:57;;;;;;;0.00;0.00;;;30.50;38.60;;;;;;5063737;28;20305;-71
2021/08/09 08:05:24;;;;;;;0.00;0.00;;;30.60;37.50;;;;;;5071744;28;20237;-70
2021/08/09 08:07:51;;;;;;;0.00;0.00;;;30.70;37.70;;;;;;5068631;28;20205;-70
2021/08/09 08:10:19;;;;;;;0.10;0.10;;;30.80;37.70;;;;;;5067634;28;20214;-70
2021/08/09 08:12:46;;;;;;;0.00;0.00;;;30.90;37.40;;;;;;5064805;28;20698;-70
2021/08/09 08:15:13;;;;;;;0.00;0.00;;;30.80;38.00;;;;;;5066298;28;20216;-70
2021/08/09 08:17:40;;;;;;;0.10;0.10;;;30.90;37.20;;;;;;5064022;28;20640;-70
2021/08/09 08:20:08;;;;;;;0.20;0.20;;;30.90;37.10;;;;;;5063962;28;20219;-70
2021/08/09 08:22:35;;;;;;;0.00;0.00;;;31.00;37.60;;;;;;5066828;28;20222;-70
2021/08/09 08:25:02;;;;;;;0.10;0.10;;;31.10;37.20;;;;;;5066881;28;20248;-70
2021/08/09 08:27:29;;;;;;;0.00;0.00;;;31.20;37.00;;;;;;5064531;28;20244;-70
2021/08/09 08:29:56;;;;;;;0.00;0.00;;;31.10;37.30;;;;;;5065980;28;20671;-70
2021/08/09 08:32:43;;;;;;;0.10;0.10;;;31.20;37.70;;;;;;5066173;28;20619;-70
2021/08/09 08:35:11;;;;;;;0.00;0.00;;;31.50;37.80;;;;;;5064901;28;20221;-70
2021/08/09 08:37:38;;;;;;;0.00;0.00;;;31.70;37.70;;;;;;5064055;28;20214;-70
2021/08/09 08:40:06;;;;;;;1.30;0.83;;;31.80;37.80;;;;;;5071683;28;20221;-71
2021/08/09 08:42:33;;;;;;;0.00;0.00;;;31.90;37.50;;;;;;5066440;28;20631;-70
2021/08/09 08:45:00;;;;;;;0.00;0.00;;;31.90;37.40;;;;;;5065555;28;20249;-70
2021/08/09 08:47:29;;;;;;;0.10;0.10;;;32.00;37.30;;;;;;5063060;28;20615;-70
2021/08/09 08:49:57;;;;;;;0.00;0.00;;;32.10;37.40;;;;;;5063741;28;20287;-70
2021/08/09 08:52:24;;;;;;;0.10;0.10;;;32.30;37.60;;;;;;5073435;28;20271;-70
2021/08/09 08:54:51;;;;;;;0.00;0.00;;;32.40;37.70;;;;;;5066426;28;20209;-70
2021/08/09 08:57:23;;;;;;;0.10;0.10;;;32.60;37.80;;;;;;5063027;28;20276;-71
2021/08/09 08:59:50;;;;;;;0.10;0.10;;;32.60;37.80;;;;;;5067658;28;20222;-71
2021/08/09 09:02:35;;;;;;;0.00;0.00;;;32.50;37.00;;;;;;5065211;28;20539;-71
2021/08/09 09:05:08;;;;;;;0.00;0.00;;;32.50;37.40;;;;;;5064464;28;20245;-70
2021/08/09 09:07:37;;;;;;;0.00;0.00;;;32.60;37.30;;;;;;5062761;28;20211;-70
2021/08/09 09:10:29;;;;;;;0.00;0.00;;;32.70;37.20;;;;;;5067703;28;20696;-70
2021/08/09 09:13:17;;;;;;;0.00;0.00;;;32.80;36.70;;;;;;5064956;28;20260;-70
2021/08/09 09:15:56;;;;;;;0.00;0.00;;;32.80;36.10;;;;;;5065502;28;20252;-70
2021/08/09 09:18:27;;;;;;;0.00;0.00;;;32.80;36.30;;;;;;5064444;28;20256;-71
2021/08/09 09:20:54;;;;;;;0.07;0.07;;;32.70;36.90;;;;;;5061225;28;20214;-70
2021/08/09 09:23:23;;;;;;;0.00;0.00;;;32.80;36.80;;;;;;5071911;28;20233;-71
2021/08/09 09:25:51;;;;;;;0.00;0.00;;;33.10;36.80;;;;;;5066386;28;20315;-71
2021/08/09 09:28:22;;;;;;;0.00;0.00;;;33.30;35.90;;;;;;5063057;28;20214;-71
2021/08/09 09:30:49;;;;;;;0.00;0.00;;;33.40;35.90;;;;;;5062991;28;20250;-70
2021/08/09 09:33:16;;;;;;;0.00;0.00;;;33.50;35.60;;;;;;5064900;28;20305;-71
2021/08/09 09:35:43;;;;;;;0.00;0.00;;;33.50;35.40;;;;;;5063180;28;20210;-71
2021/08/09 09:38:10;;;;;;;0.00;0.00;;;33.60;34.80;;;;;;5061797;28;20519;-71
2021/08/09 09:40:42;;;;;;;0.03;0.03;;;33.50;34.80;;;;;;5068466;28;20210;-70
2021/08/09 09:43:20;;;;;;;0.00;0.00;;;33.50;35.00;;;;;;5063698;28;20709;-70
2021/08/09 09:45:55;;;;;;;0.10;0.10;;;33.60;35.60;;;;;;5062597;28;20307;-70
2021/08/09 09:48:36;;;;;;;0.00;0.00;;;33.70;35.00;;;;;;5061100;28;20210;-71
2021/08/09 09:51:10;;;;;;;0.00;0.00;;;33.80;34.20;;;;;;5062098;28;20621;-71
2021/08/09 09:53:37;;;;;;;0.00;0.00;;;33.70;33.60;;;;;;5062944;28;20224;-71
2021/08/09 09:56:04;;;;;;;0.07;0.07;;;33.70;34.00;;;;;;5064832;28;20275;-71
2021/08/09 09:58:32;;;;;;;0.00;0.00;;;33.80;34.10;;;;;;5061841;28;20218;-71
2021/08/09 10:00:59;;;;;;;0.00;0.00;;;34.00;34.30;;;;;;5066959;28;20690;-70
2021/08/09 10:03:26;;;;;;;0.00;0.00;;;34.20;33.80;;;;;;5064274;28;20217;-70
2021/08/09 10:05:54;;;;;;;0.10;0.10;;;34.40;33.90;;;;;;5061587;28;20249;-70
2021/08/09 10:08:23;;;;;;;0.00;0.00;;;34.50;33.80;;;;;;5061644;28;20214;-70
2021/08/09 10:10:52;;;;;;;0.17;0.17;;;34.50;34.00;;;;;;5067608;28;20220;-71
2021/08/09 10:13:21;;;;;;;0.07;0.07;;;34.60;32.50;;;;;;5062312;28;20218;-71
2021/08/09 10:16:11;;;;;;;0.00;0.00;;;34.40;32.80;;;;;;5062226;28;20214;-72
2021/08/09 10:18:43;;;;;;;0.00;0.00;;;34.30;33.50;;;;;;5070796;28;20264;-71
2021/08/09 10:21:10;;;;;;;0.00;0.00;;;34.40;32.50;;;;;;5070453;28;20210;-71
2021/08/09 10:23:41;;;;;;;0.00;0.00;;;34.40;32.40;;;;;;5061885;28;20272;-71
2021/08/09 10:26:10;;;;;;;0.00;0.00;;;34.40;32.70;;;;;;5063903;28;20279;-71
2021/08/09 10:28:54;;;;;;;0.00;0.00;;;34.50;32.40;;;;;;5063142;28;20267;-71
2021/08/09 10:31:25;;;;;;;0.10;0.10;;;34.60;31.80;;;;;;5068673;28;20526;-71
2021/08/09 10:33:54;;;;;;;0.10;0.10;;;34.70;32.50;;;;;;5064248;28;20234;-71
2021/08/09 10:36:22;;;;;;;0.00;0.00;;;34.70;31.90;;;;;;5068182;28;20210;-71
2021/08/09 10:38:54;;;;;;;0.00;0.00;;;34.60;31.20;;;;;;5063981;28;20631;-71
2021/08/09 10:41:28;;;;;;;0.23;0.23;;;34.50;32.20;;;;;;5064167;28;20217;-71
2021/08/09 10:44:10;;;;;;;0.10;0.10;;;34.50;31.70;;;;;;5045608;28;20655;-71
2021/08/09 10:46:44;;;;;;;0.63;0.53;;;34.50;31.60;;;;;;5062289;28;20246;-71
2021/08/09 10:49:39;;;;;;;0.10;0.10;;;34.50;31.40;;;;;;5063584;28;20669;-71
2021/08/09 10:52:06;;;;;;;0.03;0.03;;;34.60;32.80;;;;;;5062411;28;20214;-71
2021/08/09 10:54:35;;;;;;;0.10;0.10;;;34.80;33.00;;;;;;5063215;28;20213;-71
2021/08/09 10:57:05;;;;;;;0.00;0.00;;;35.00;32.70;;;;;;5064302;28;20252;-71
2021/08/09 10:59:50;;;;;;;0.30;0.30;;;35.10;33.20;;;;;;5060665;28;20639;-71
2021/08/09 11:02:26;;;;;;;0.10;0.10;;;35.10;32.70;;;;;;5060701;28;20210;-71
2021/08/09 11:05:15;;;;;;;0.10;0.10;;;35.10;32.80;;;;;;5059952;28;20313;-71
2021/08/09 11:07:44;;;;;;;0.00;0.00;;;35.00;32.60;;;;;;5063185;28;20271;-71
2021/08/09 11:10:11;;;;;;;0.00;0.00;;;35.10;33.10;;;;;;5061953;28;20210;-71
2021/08/09 11:13:01;;;;;;;0.00;0.00;;;35.20;32.20;;;;;;5061648;28;20215;-71
2021/08/09 11:15:28;;;;;;;0.03;0.03;;;35.30;31.70;;;;;;5069590;28;20671;-71
2021/08/09 11:17:59;;;;;;;0.00;0.00;;;35.30;31.90;;;;;;5059465;28;20214;-71
2021/08/09 11:20:32;;;;;;;0.00;0.00;;;35.20;31.70;;;;;;5060593;28;20283;-71
2021/08/09 11:23:03;;;;;;;1.00;0.77;;;35.30;32.10;;;;;;5060253;28;20272;-71
2021/08/09 11:25:37;;;;;;;0.00;0.00;;;35.20;32.30;;;;;;5062829;28;20295;-71
2021/08/09 11:28:24;;;;;;;0.00;0.00;;;35.30;32.50;;;;;;5065660;28;20206;-71
2021/08/09 11:30:56;;;;;;;0.00;0.00;;;35.40;32.40;;;;;;5060609;28;20233;-71
2021/08/09 11:33:34;;;;;;;0.00;0.00;;;35.50;31.60;;;;;;5060435;28;20238;-71
2021/08/09 11:36:15;;;;;;;0.00;0.00;;;35.30;31.60;;;;;;5067613;28;20816;-71
2021/08/09 11:38:49;;;;;;;0.10;0.10;;;35.30;31.60;;;;;;5060990;28;20237;-71
2021/08/09 11:41:18;;;;;;;1.50;1.40;;;35.30;31.40;;;;;;5066614;28;20580;-71
2021/08/09 11:43:46;;;;;;;0.00;0.00;;;35.30;31.80;;;;;;5065676;28;20221;-71
2021/08/09 11:46:16;;;;;;;1.73;0.60;;;35.30;31.70;;;;;;5063558;28;20237;-71
2021/08/09 11:48:47;;;;;;;0.10;0.10;;;35.40;31.80;;;;;;5061914;28;20214;-71
2021/08/09 11:51:34;;;;;;;0.00;0.00;;;35.60;31.50;;;;;;5063806;28;20209;-71
2021/08/09 11:54:01;;;;;;;0.10;0.10;;;35.60;31.30;;;;;;5063734;28;20210;-71
2021/08/09 11:56:33;;;;;;;0.00;0.00;;;35.50;30.90;;;;;;5065021;28;20214;-69
2021/08/09 11:59:11;;;;;;;0.00;0.00;;;35.50;31.50;;;;;;5061937;28;20281;-69
2021/08/09 12:01:40;;;;;;;0.00;0.00;;;35.60;30.90;;;;;;5061449;28;20214;-69
2021/08/09 12:04:18;;;;;;;0.00;0.00;;;35.60;31.10;;;;;;5068503;28;20210;-69
2021/08/09 12:06:57;;;;;;;0.00;0.00;;;35.60;31.10;;;;;;5063459;28;20302;-69
2021/08/09 12:09:50;;;;;;;0.00;0.00;;;35.80;31.20;;;;;;5063275;28;20584;-68
2021/08/09 12:12:20;;;;;;;0.00;0.00;;;35.80;31.60;;;;;;5060900;28;20209;-68
2021/08/09 12:14:59;;;;;;;0.20;0.20;;;35.80;30.80;;;;;;5060028;28;20211;-68
2021/08/09 12:17:26;;;;;;;0.10;0.10;;;35.60;30.70;;;;;;5059483;28;20273;-68
2021/08/09 12:19:53;;;;;;;0.10;0.10;;;35.50;31.20;;;;;;5059994;28;20275;-68
2021/08/09 12:22:31;;;;;;;0.00;0.00;;;35.50;32.00;;;;;;5062268;28;20213;-68
2021/08/09 12:25:12;;;;;;;1.00;1.00;;;35.40;32.00;;;;;;5063599;28;20214;-68
2021/08/09 12:27:40;;;;;;;0.00;0.00;;;35.40;32.00;;;;;;5060085;28;20214;-68
2021/08/09 12:30:11;;;;;;;0.00;0.00;;;35.40;32.60;;;;;;5065125;28;20249;-68
2021/08/09 12:32:58;;;;;;;0.00;0.00;;;35.40;31.90;;;;;;5061990;28;20210;-68
2021/08/09 12:35:35;;;;;;;0.10;0.10;;;35.30;32.00;;;;;;5074941;28;20586;-68
2021/08/09 12:38:03;;;;;;;0.10;0.10;;;35.30;31.70;;;;;;5065220;28;20218;-68
2021/08/09 12:40:43;;;;;;;0.27;0.27;;;35.30;31.90;;;;;;5068210;28;20210;-68
2021/08/09 12:43:12;;;;;;;0.20;0.20;;;35.30;32.10;;;;;;5068127;28;20213;-71
2021/08/09 12:45:40;;;;;;;0.23;0.23;;;35.40;31.30;;;;;;5065149;28;20903;-68
2021/08/09 12:48:08;;;;;;;0.00;0.00;;;35.30;31.00;;;;;;5064868;28;20215;-69
2021/08/09 12:50:37;;;;;;;0.00;0.00;;;35.30;31.30;;;;;;5064570;28;20272;-69
2021/08/09 12:53:05;;;;;;;0.00;0.00;;;35.40;31.40;;;;;;5067430;28;20214;-69
2021/08/09 12:55:32;;;;;;;0.03;0.03;;;35.40;31.50;;;;;;5062866;28;20272;-69
2021/08/09 12:58:00;;;;;;;0.10;0.10;;;35.30;30.70;;;;;;5065590;28;20249;-68
2021/08/09 13:00:32;;;;;;;0.00;0.00;;;35.40;32.00;;;;;;5065668;28;20225;-68
2021/08/09 13:02:59;;;;;;;0.10;0.10;;;35.50;32.00;;;;;;5063428;28;20308;-70